Terminal Aerodrome Forecast
Issued by NWS Shreveport, LA

Home | Current Version | Previous Version | Text Only | Print | Product List | Glossary On
Versions: 1 2 3 4 5 6 7 8 9 10 11 12 13 14 15 16 17 18 19 20
128
FTUS44 KSHV 271352 AAC
TAFELD
TAF AMD
KELD 271352Z 2714/2812 VRB03KT P6SM VCSH SCT050 BKN080 OVC100
      TEMPO 2714/2715 3SM +RA BR SCT004 SCT050
     FM271500 VRB04KT P6SM VCSH SCT015 BKN035
      TEMPO 2715/2718 4SM -SHRA BR BKN020
     FM271800 20005KT P6SM VCSH BKN035
     FM272100 20005KT P6SM VCTS BKN035CB
     FM280200 VRB03KT P6SM VCSH BKN045 OVC100
     FM280700 VRB03KT P6SM VCSH BKN030=

USA.gov is the U.S. government's official web portal to all federal, state and local government web resources and services.